Time;durP1;ratioP1;P1;durP2;ratioP2;P2;SDS_P1;SDS_P2;PMS_P1;PMS_P2;Temp;Humidity;BMP_temperature;BMP_pressure;BME280_temperature;BME280_humidity;BME280_pressure;Samples;Min_cycle;Max_cycle;Signal;HPM_P1;HPM_P2
2021/04/14 00:04:06;;;;;;;4.07;3.75;;;6.00;87.90;;;;;;5031909;28;20214;-84
2021/04/14 00:10:28;;;;;;;4.60;4.20;;;6.00;88.50;;;;;;5031546;28;20189;-83
2021/04/14 00:13:37;;;;;;;5.10;4.60;;;5.90;88.30;;;;;;5032218;28;20651;-83
2021/04/14 00:16:03;;;;;;;4.43;4.13;;;5.90;88.50;;;;;;5032136;28;20179;-81
2021/04/14 00:18:29;;;;;;;5.00;4.53;;;5.80;88.50;;;;;;5032368;28;20171;-88
2021/04/14 00:20:55;;;;;;;4.47;4.17;;;5.80;89.00;;;;;;5032072;28;20372;-87
2021/04/14 00:23:22;;;;;;;5.10;4.50;;;5.80;89.40;;;;;;5032198;28;20321;-87
2021/04/14 00:25:50;;;;;;;4.50;3.65;;;5.80;89.20;;;;;;5035325;28;20246;-87
2021/04/14 00:28:22;;;;;;;4.80;4.40;;;5.70;89.50;;;;;;5038844;28;20171;-87
2021/04/14 00:30:49;;;;;;;4.50;4.20;;;5.70;89.70;;;;;;5040815;28;20165;-88
2021/04/14 00:33:15;;;;;;;5.82;3.88;;;5.70;89.80;;;;;;5042134;28;20701;-87
2021/04/14 00:35:41;;;;;;;4.35;4.03;;;5.70;90.00;;;;;;5054107;28;20234;-89
2021/04/14 00:38:08;;;;;;;3.93;3.63;;;5.70;90.00;;;;;;5051733;28;20412;-88
2021/04/14 00:40:37;;;;;;;4.47;4.18;;;5.60;90.00;;;;;;5051732;28;20406;-88
2021/04/14 00:43:13;;;;;;;4.60;4.20;;;5.70;90.00;;;;;;5052657;28;20182;-88
2021/04/14 00:45:40;;;;;;;4.80;4.22;;;5.60;90.00;;;;;;5042119;28;20205;-88
2021/04/14 00:48:06;;;;;;;5.20;4.70;;;5.60;90.10;;;;;;5032034;28;20228;-87
2021/04/14 00:50:32;;;;;;;5.38;4.50;;;5.60;90.20;;;;;;5032526;28;20167;-88
2021/04/14 00:52:58;;;;;;;3.97;3.70;;;5.60;90.30;;;;;;5031744;28;20183;-88
2021/04/14 00:55:27;;;;;;;4.40;3.95;;;5.60;90.40;;;;;;5031298;28;20538;-88
2021/04/14 00:57:53;;;;;;;4.90;4.30;;;5.60;90.40;;;;;;5031999;28;20233;-87
2021/04/14 01:00:34;;;;;;;4.20;3.80;;;5.60;90.40;;;;;;5032962;28;20206;-86
2021/04/14 01:03:01;;;;;;;5.18;3.70;;;5.60;90.30;;;;;;5032794;28;20171;-86
2021/04/14 01:05:29;;;;;;;4.25;3.83;;;5.60;90.10;;;;;;5032250;28;20209;-87
2021/04/14 01:07:54;;;;;;;4.38;3.97;;;5.60;90.00;;;;;;5036036;28;20178;-86
2021/04/14 01:10:21;;;;;;;4.40;4.03;;;5.60;90.10;;;;;;5047275;28;20187;-85
2021/04/14 01:12:47;;;;;;;6.60;4.70;;;5.60;90.20;;;;;;5050034;28;20194;-89
2021/04/14 01:15:17;;;;;;;5.17;4.27;;;5.60;90.20;;;;;;5050298;28;20182;-87
2021/04/14 01:17:43;;;;;;;4.38;3.95;;;5.60;90.50;;;;;;5055681;28;20396;-85
2021/04/14 01:20:09;;;;;;;4.33;3.93;;;5.60;90.50;;;;;;5051388;28;20181;-86
2021/04/14 01:22:35;;;;;;;4.30;3.33;;;5.60;90.40;;;;;;5042889;28;20179;-86
2021/04/14 01:25:05;;;;;;;5.72;4.47;;;5.60;90.30;;;;;;5035238;28;20543;-86
2021/04/14 01:27:31;;;;;;;4.43;4.10;;;5.50;90.10;;;;;;5035904;28;20171;-87
2021/04/14 01:29:57;;;;;;;4.47;4.07;;;5.50;90.10;;;;;;5035267;28;20686;-87
2021/04/14 01:32:24;;;;;;;5.27;3.77;;;5.40;90.20;;;;;;5035925;28;20215;-87
2021/04/14 01:34:50;;;;;;;4.90;4.40;;;5.40;90.20;;;;;;5035509;28;20187;-89
2021/04/14 01:37:15;;;;;;;4.00;3.70;;;5.40;90.00;;;;;;5035767;28;20179;-86
2021/04/14 01:39:41;;;;;;;5.20;3.87;;;5.40;90.00;;;;;;5035733;28;20179;-86
2021/04/14 01:42:07;;;;;;;4.97;4.20;;;5.40;90.10;;;;;;5035185;28;20204;-87
2021/04/14 01:44:33;;;;;;;4.80;4.33;;;5.40;90.10;;;;;;5035303;28;20654;-87
2021/04/14 01:46:58;;;;;;;4.70;4.30;;;5.30;90.10;;;;;;5034458;28;20452;-87
2021/04/14 01:49:24;;;;;;;5.43;4.20;;;5.30;90.10;;;;;;5035133;28;20459;-88
2021/04/14 01:51:50;;;;;;;5.10;4.23;;;5.30;90.10;;;;;;5033479;28;20668;-89
2021/04/14 01:54:15;;;;;;;4.30;4.00;;;5.30;90.30;;;;;;5034876;28;20175;-88
2021/04/14 01:56:41;;;;;;;4.20;3.90;;;5.30;90.30;;;;;;5034962;28;20185;-88
2021/04/14 01:59:09;;;;;;;5.33;4.23;;;5.20;90.20;;;;;;5033114;28;20248;-87
2021/04/14 02:01:35;;;;;;;4.68;4.30;;;5.20;90.10;;;;;;5035310;28;20413;-87
2021/04/14 02:04:01;;;;;;;5.70;5.20;;;5.20;90.40;;;;;;5032629;28;20715;-88
2021/04/14 02:06:26;;;;;;;5.53;4.70;;;5.20;90.50;;;;;;5013696;28;20222;-86
2021/04/14 02:08:52;;;;;;;5.20;4.70;;;5.20;90.50;;;;;;5014515;28;20179;-87
2021/04/14 02:11:18;;;;;;;5.77;5.13;;;5.10;90.50;;;;;;5014965;28;20194;-86
2021/04/14 02:13:44;;;;;;;5.90;5.40;;;5.10;90.50;;;;;;5016637;28;20195;-85
2021/04/14 02:16:17;;;;;;;5.43;4.93;;;5.10;90.50;;;;;;5034259;28;20503;-86
2021/04/14 02:18:44;;;;;;;5.28;4.78;;;5.10;90.50;;;;;;5035265;28;20171;-85
2021/04/14 02:21:10;;;;;;;5.68;5.13;;;5.00;90.40;;;;;;5034247;28;20181;-86
2021/04/14 02:23:40;;;;;;;5.72;5.15;;;5.10;90.60;;;;;;5034591;28;20563;-86
2021/04/14 02:26:09;;;;;;;6.80;4.63;;;5.10;90.80;;;;;;5017033;28;20189;-86
2021/04/14 02:28:35;;;;;;;4.93;4.45;;;5.10;90.90;;;;;;5014126;28;20179;-86
2021/04/14 02:31:01;;;;;;;5.90;5.15;;;5.10;91.20;;;;;;5012501;28;20198;-86
2021/04/14 02:33:26;;;;;;;5.07;4.40;;;5.10;90.80;;;;;;5014546;28;20230;-86
2021/04/14 02:35:53;;;;;;;7.33;4.70;;;5.00;90.40;;;;;;5014282;28;20195;-88
2021/04/14 02:38:21;;;;;;;4.97;4.55;;;5.00;90.60;;;;;;5014224;28;20225;-86
2021/04/14 02:40:47;;;;;;;8.07;4.95;;;5.00;90.90;;;;;;5014377;28;20209;-86
2021/04/14 02:43:13;;;;;;;4.90;4.45;;;5.00;90.90;;;;;;5013452;28;20757;-87
2021/04/14 02:45:40;;;;;;;4.60;4.20;;;5.00;90.90;;;;;;5025043;28;20285;-86
2021/04/14 02:48:07;;;;;;;6.32;4.78;;;5.00;90.80;;;;;;5033082;28;20413;-86
2021/04/14 02:50:33;;;;;;;5.15;4.75;;;5.00;90.60;;;;;;5033947;28;20174;-85
2021/04/14 02:52:59;;;;;;;4.80;4.50;;;5.00;90.60;;;;;;5031972;28;20174;-85
2021/04/14 02:55:28;;;;;;;5.60;5.07;;;4.90;90.60;;;;;;5033713;28;20214;-85
2021/04/14 02:57:54;;;;;;;4.63;4.18;;;4.80;90.70;;;;;;5033280;28;20230;-84
2021/04/14 03:00:22;;;;;;;4.40;4.00;;;4.80;90.70;;;;;;5033159;28;20264;-84
2021/04/14 03:02:48;;;;;;;4.47;4.07;;;4.80;90.80;;;;;;5033611;28;20416;-83
2021/04/14 03:05:16;;;;;;;4.53;4.10;;;4.80;90.90;;;;;;5031147;28;20213;-84
2021/04/14 03:07:42;;;;;;;7.30;4.53;;;4.70;91.00;;;;;;5033439;28;20189;-84
2021/04/14 03:10:10;;;;;;;6.30;4.63;;;4.70;91.20;;;;;;5031121;28;20177;-84
2021/04/14 03:12:37;;;;;;;4.75;4.35;;;4.70;91.20;;;;;;5033274;28;20422;-84
2021/04/14 03:15:05;;;;;;;4.63;4.22;;;4.70;91.10;;;;;;5032646;28;20179;-84
2021/04/14 03:17:30;;;;;;;5.07;4.60;;;4.60;91.00;;;;;;5033005;28;20181;-83
2021/04/14 03:19:56;;;;;;;6.80;4.40;;;4.60;91.10;;;;;;5032536;28;20581;-83
2021/04/14 03:22:22;;;;;;;5.60;4.70;;;4.70;91.20;;;;;;5033075;28;20174;-83
2021/04/14 03:24:48;;;;;;;6.13;4.60;;;4.60;91.30;;;;;;5030998;28;20233;-84
2021/04/14 03:27:13;;;;;;;5.10;4.60;;;4.60;91.20;;;;;;5032299;28;20194;-82
2021/04/14 03:29:39;;;;;;;5.43;4.60;;;4.60;91.10;;;;;;5033101;28;20528;-79
2021/04/14 03:32:05;;;;;;;4.70;4.30;;;4.60;91.30;;;;;;5031018;28;20244;-82
2021/04/14 03:34:31;;;;;;;5.05;4.60;;;4.50;91.40;;;;;;5032966;28;20200;-82
2021/04/14 03:36:57;;;;;;;5.32;4.78;;;4.60;91.70;;;;;;5032251;28;20574;-83
2021/04/14 03:39:23;;;;;;;6.37;5.87;;;4.60;91.60;;;;;;5030986;28;20186;-82
2021/04/14 03:41:48;;;;;;;7.40;6.83;;;4.60;91.60;;;;;;5032454;28;20590;-81
2021/04/14 03:44:14;;;;;;;7.90;7.30;;;4.50;91.80;;;;;;5030381;28;20206;-82
2021/04/14 03:46:40;;;;;;;7.83;7.23;;;4.60;91.90;;;;;;5031360;28;20543;-81
2021/04/14 03:49:05;;;;;;;6.50;6.00;;;4.60;91.80;;;;;;5031626;28;20308;-82
2021/04/14 03:51:31;;;;;;;5.60;4.80;;;4.60;91.80;;;;;;5032504;28;20186;-81
2021/04/14 03:53:57;;;;;;;6.00;5.60;;;4.60;92.00;;;;;;5031943;28;20219;-83
2021/04/14 03:56:23;;;;;;;5.80;5.20;;;4.60;92.20;;;;;;5032632;28;20178;-81
2021/04/14 03:58:52;;;;;;;6.77;5.30;;;4.60;92.30;;;;;;5030978;28;20406;-82
2021/04/14 04:01:30;;;;;;;6.00;5.40;;;4.60;92.40;;;;;;5030479;28;20170;-81
2021/04/14 04:03:57;;;;;;;7.22;6.00;;;4.60;92.40;;;;;;5032437;28;20217;-83
2021/04/14 04:06:24;;;;;;;6.32;5.75;;;4.70;92.40;;;;;;5032024;28;20197;-81
2021/04/14 04:08:50;;;;;;;5.47;4.97;;;4.70;92.60;;;;;;5031182;28;20189;-81
2021/04/14 04:11:17;;;;;;;5.25;4.80;;;4.70;92.50;;;;;;5031523;28;20174;-82
2021/04/14 04:13:43;;;;;;;5.93;5.40;;;4.70;92.50;;;;;;5030857;28;20626;-82
2021/04/14 04:16:09;;;;;;;6.27;5.67;;;4.80;92.40;;;;;;5023626;28;20186;-83
2021/04/14 04:18:36;;;;;;;8.23;7.53;;;4.80;92.40;;;;;;5012503;28;20281;-82
2021/04/14 04:21:04;;;;;;;8.48;7.88;;;4.80;92.60;;;;;;5010509;28;20250;-83
2021/04/14 04:23:30;;;;;;;6.40;5.40;;;4.80;92.80;;;;;;5012584;28;20510;-83
2021/04/14 04:25:56;;;;;;;7.05;6.60;;;4.90;92.50;;;;;;5019108;28;20176;-82
2021/04/14 04:28:22;;;;;;;6.27;5.87;;;4.90;92.20;;;;;;5010439;28;20261;-82
2021/04/14 04:30:49;;;;;;;6.40;4.97;;;4.90;92.10;;;;;;5020120;28;20425;-82
2021/04/14 04:33:14;;;;;;;5.60;4.30;;;4.90;91.60;;;;;;5030305;28;20225;-82
2021/04/14 04:35:40;;;;;;;6.80;6.20;;;4.80;91.40;;;;;;5023134;28;20196;-82
2021/04/14 04:38:06;;;;;;;8.90;5.53;;;4.80;91.40;;;;;;5029365;28;20433;-82
2021/04/14 04:40:32;;;;;;;8.27;7.57;;;4.80;91.50;;;;;;5016530;28;20418;-82
2021/04/14 04:42:59;;;;;;;5.13;4.63;;;4.70;91.70;;;;;;5030501;28;20189;-84
2021/04/14 04:45:28;;;;;;;8.20;7.57;;;4.70;91.70;;;;;;5029756;28;20230;-82
2021/04/14 04:47:54;;;;;;;5.10;4.70;;;4.70;91.90;;;;;;5021165;28;20189;-82
2021/04/14 04:50:26;;;;;;;12.95;7.28;;;4.70;91.80;;;;;;5031178;28;20178;-82
2021/04/14 04:52:56;;;;;;;8.32;7.30;;;4.70;91.90;;;;;;5034891;28;20158;-83
2021/04/14 04:55:22;;;;;;;5.15;4.75;;;4.70;91.90;;;;;;5033773;28;20182;-82
2021/04/14 04:57:48;;;;;;;7.53;5.10;;;4.70;91.90;;;;;;5034613;28;20186;-82
2021/04/14 05:00:15;;;;;;;5.55;5.15;;;4.70;92.00;;;;;;5034579;28;20204;-82
2021/04/14 05:02:40;;;;;;;5.30;4.90;;;4.70;92.20;;;;;;5032588;28;20640;-83
2021/04/14 05:05:13;;;;;;;8.37;5.90;;;4.70;92.40;;;;;;5031517;28;20262;-81
2021/04/14 05:07:39;;;;;;;8.40;6.03;;;4.70;92.50;;;;;;5033689;28;20173;-82
2021/04/14 05:10:06;;;;;;;8.40;7.80;;;4.70;92.30;;;;;;5033790;28;20179;-83
2021/04/14 05:12:32;;;;;;;5.50;4.60;;;4.70;92.20;;;;;;5034787;28;20456;-82
2021/04/14 05:14:58;;;;;;;6.00;5.50;;;4.80;92.30;;;;;;5032963;28;20190;-81
2021/04/14 05:17:23;;;;;;;7.13;6.63;;;4.80;92.20;;;;;;5034157;28;20925;-81
2021/04/14 05:19:49;;;;;;;6.27;5.77;;;4.80;92.20;;;;;;5033410;28;20186;-81
2021/04/14 05:22:15;;;;;;;8.60;6.83;;;4.80;92.40;;;;;;5032113;28;20221;-81
2021/04/14 05:24:40;;;;;;;7.40;5.70;;;4.90;92.50;;;;;;5033812;28;20229;-81
2021/04/14 05:27:06;;;;;;;6.73;5.43;;;4.80;92.70;;;;;;5033618;28;20261;-77
2021/04/14 05:29:32;;;;;;;7.70;7.00;;;4.90;92.70;;;;;;5037155;28;20174;-82
2021/04/14 05:31:58;;;;;;;8.57;7.93;;;4.80;92.70;;;;;;5035037;28;20236;-82
2021/04/14 05:34:24;;;;;;;6.73;6.07;;;4.90;92.90;;;;;;5033629;28;20179;-80
2021/04/14 05:36:52;;;;;;;7.90;7.38;;;4.90;92.80;;;;;;5033573;28;20417;-83
2021/04/14 05:39:19;;;;;;;7.18;5.93;;;5.00;92.80;;;;;;5030112;28;20206;-84
2021/04/14 05:41:44;;;;;;;8.10;7.45;;;5.00;92.80;;;;;;5032182;28;20657;-83
2021/04/14 05:44:10;;;;;;;7.70;6.90;;;5.00;92.70;;;;;;5031613;28;20210;-81
2021/04/14 05:46:36;;;;;;;7.53;6.23;;;5.00;92.70;;;;;;5028259;28;20899;-79
2021/04/14 05:49:02;;;;;;;7.00;6.10;;;5.10;93.10;;;;;;5027422;28;20182;-79
2021/04/14 05:51:30;;;;;;;6.97;6.23;;;5.10;92.90;;;;;;5030315;28;20408;-82
2021/04/14 05:53:56;;;;;;;8.50;7.80;;;5.20;92.70;;;;;;5033014;28;20410;-83
2021/04/14 05:56:23;;;;;;;6.53;5.93;;;5.20;92.70;;;;;;5032738;28;20201;-83
2021/04/14 05:58:49;;;;;;;6.47;5.88;;;5.20;92.70;;;;;;5028264;28;20233;-83
2021/04/14 06:01:21;;;;;;;8.80;5.87;;;5.30;92.40;;;;;;5019449;28;20179;-84
2021/04/14 06:03:50;;;;;;;8.65;8.05;;;5.30;92.30;;;;;;5034143;28;20404;-81
2021/04/14 06:06:17;;;;;;;6.78;6.10;;;5.40;92.10;;;;;;5023602;28;20180;-80
2021/04/14 06:08:43;;;;;;;9.48;8.57;;;5.40;91.90;;;;;;5029061;28;20265;-80
2021/04/14 06:11:09;;;;;;;10.90;7.67;;;5.40;92.40;;;;;;5033514;28;20253;-79
2021/04/14 06:13:35;;;;;;;8.73;8.03;;;5.90;99.90;;;;;;5034155;28;20171;-79
2021/04/14 06:16:03;;;;;;;6.90;6.40;;;8.00;99.90;;;;;;5034186;28;20474;-79
2021/04/14 06:18:28;;;;;;;10.53;7.27;;;9.50;99.90;;;;;;5033911;28;20463;-79
2021/04/14 06:20:54;;;;;;;9.23;8.30;;;10.80;99.90;;;;;;5034263;28;20409;-79
2021/04/14 06:23:23;;;;;;;6.80;6.30;;;11.30;99.90;;;;;;5033352;28;20181;-79
2021/04/14 06:28:48;;;;;;;8.63;7.47;;;12.00;99.90;;;;;;5010260;28;20429;-79
2021/04/14 06:31:14;;;;;;;10.93;9.83;;;12.40;95.10;;;;;;5032545;28;20427;-76
2021/04/14 06:33:43;;;;;;;9.50;8.70;;;12.70;89.80;;;;;;5033852;28;20461;-81
2021/04/14 06:36:09;;;;;;;7.03;6.43;;;13.00;84.80;;;;;;5034175;28;20185;-77
2021/04/14 06:38:41;;;;;;;8.00;7.20;;;12.90;75.70;;;;;;5033602;28;20483;-76
2021/04/14 06:44:22;;;;;;;9.43;8.63;;;12.00;69.00;;;;;;5026797;28;20862;-77
2021/04/14 06:46:49;;;;;;;7.47;6.77;;;11.30;68.70;;;;;;5021075;28;20458;-75
2021/04/14 06:49:36;;;;;;;7.77;7.07;;;10.90;70.00;;;;;;5026518;28;20820;-74
2021/04/14 06:52:33;;;;;;;7.97;7.17;;;10.40;70.30;;;;;;5019984;28;20425;-74
2021/04/14 06:55:14;;;;;;;10.33;9.43;;;10.00;71.60;;;;;;5021601;28;20508;-74
2021/04/14 06:57:47;;;;;;;8.97;7.60;;;9.60;75.50;;;;;;5023759;28;20405;-74
2021/04/14 07:00:22;;;;;;;10.13;9.33;;;9.30;77.30;;;;;;5027292;28;20418;-74
2021/04/14 07:03:03;;;;;;;12.10;9.33;;;9.10;79.70;;;;;;5026483;28;20416;-74
2021/04/14 07:05:34;;;;;;;9.83;8.77;;;8.90;81.30;;;;;;5018878;28;20502;-75
2021/04/14 07:08:03;;;;;;;8.80;8.10;;;8.80;82.10;;;;;;5031236;28;20393;-74
2021/04/14 07:10:32;;;;;;;10.73;9.83;;;8.70;81.80;;;;;;5029621;28;20459;-75
2021/04/14 07:13:03;;;;;;;8.80;8.00;;;8.60;81.90;;;;;;5032382;28;20842;-77
2021/04/14 07:15:30;;;;;;;9.13;8.23;;;8.50;83.90;;;;;;5019131;28;20648;-78
2021/04/14 07:18:17;;;;;;;10.87;9.90;;;8.50;84.80;;;;;;5020309;28;20417;-76
2021/04/14 07:20:54;;;;;;;9.23;8.43;;;8.50;85.10;;;;;;5014817;28;20460;-77
2021/04/14 07:23:41;;;;;;;11.83;10.87;;;8.50;85.70;;;;;;5011479;28;20975;-78
2021/04/14 07:26:44;;;;;;;9.60;8.60;;;8.40;86.40;;;;;;5021919;28;20428;-77
2021/04/14 07:29:34;;;;;;;9.47;8.57;;;8.40;86.90;;;;;;5030575;28;20423;-76
2021/04/14 07:32:17;;;;;;;11.50;10.50;;;8.40;87.70;;;;;;5032451;28;20451;-77
2021/04/14 07:34:48;;;;;;;10.17;9.27;;;8.40;89.30;;;;;;5032805;28;20864;-77
2021/04/14 07:37:42;;;;;;;10.37;9.00;;;8.40;90.20;;;;;;5031971;28;20391;-76
2021/04/14 07:40:25;;;;;;;9.13;8.30;;;8.40;90.00;;;;;;5032603;28;20433;-76
2021/04/14 07:43:03;;;;;;;10.17;8.53;;;8.40;87.50;;;;;;5032897;28;20371;-76
2021/04/14 07:45:36;;;;;;;12.43;10.10;;;8.40;87.90;;;;;;5032237;28;20940;-76
2021/04/14 07:48:07;;;;;;;10.40;9.40;;;8.40;88.60;;;;;;5048209;28;20974;-77
2021/04/14 07:50:58;;;;;;;10.27;9.27;;;8.50;88.30;;;;;;5032241;28;20912;-77
2021/04/14 07:53:33;;;;;;;10.97;9.97;;;8.50;88.80;;;;;;5031641;28;20401;-77
2021/04/14 07:56:06;;;;;;;10.60;9.50;;;8.70;89.80;;;;;;5032576;28;20424;-77
2021/04/14 07:58:34;;;;;;;10.60;9.10;;;8.70;90.40;;;;;;5031921;28;20413;-77
2021/04/14 08:01:15;;;;;;;10.73;9.70;;;8.80;89.20;;;;;;5032529;28;20397;-77
2021/04/14 08:03:41;;;;;;;9.97;8.97;;;8.90;87.30;;;;;;5032863;28;20429;-76
2021/04/14 08:06:28;;;;;;;9.90;8.90;;;9.00;88.10;;;;;;5032328;28;20441;-76
2021/04/14 08:08:55;;;;;;;8.83;8.03;;;9.10;87.60;;;;;;5032550;28;20417;-76
2021/04/14 08:11:35;;;;;;;8.67;7.60;;;9.20;86.00;;;;;;5030420;28;20767;-76
2021/04/14 08:14:12;;;;;;;10.87;9.07;;;9.30;86.20;;;;;;5031987;28;20812;-77
2021/04/14 08:16:42;;;;;;;9.93;8.10;;;9.40;86.50;;;;;;5032384;28;20420;-77
2021/04/14 08:19:22;;;;;;;9.13;8.23;;;9.40;87.30;;;;;;5032212;28;20448;-77
2021/04/14 08:22:18;;;;;;;10.63;8.10;;;9.50;87.70;;;;;;5032336;28;20388;-77
2021/04/14 08:24:47;;;;;;;20.83;9.37;;;9.40;83.20;;;;;;5032004;28;20456;-77
2021/04/14 08:27:28;;;;;;;9.03;8.13;;;9.50;79.80;;;;;;5031140;28;20417;-77
2021/04/14 08:30:03;;;;;;;9.73;8.93;;;9.50;80.60;;;;;;5032255;28;20729;-76
2021/04/14 08:32:32;;;;;;;8.83;8.03;;;9.40;79.10;;;;;;5028878;28;20548;-76
2021/04/14 08:35:02;;;;;;;10.10;9.30;;;9.40;81.30;;;;;;5047595;28;20421;-77
2021/04/14 08:37:29;;;;;;;8.60;7.90;;;9.50;80.80;;;;;;5031323;28;20500;-77
2021/04/14 08:39:58;;;;;;;9.50;8.60;;;9.50;81.30;;;;;;5031633;28;20508;-77
2021/04/14 08:42:27;;;;;;;8.27;7.47;;;9.50;79.00;;;;;;5031142;28;20372;-77
2021/04/14 08:45:18;;;;;;;10.23;8.20;;;9.50;80.10;;;;;;5031779;28;20510;-77
2021/04/14 08:48:06;;;;;;;9.00;8.13;;;9.60;80.30;;;;;;5031781;28;21000;-77
2021/04/14 08:50:36;;;;;;;8.97;8.07;;;9.60;80.40;;;;;;5030642;28;20456;-77
2021/04/14 08:53:09;;;;;;;9.00;8.10;;;9.70;77.60;;;;;;5047502;28;20414;-77
2021/04/14 08:55:37;;;;;;;11.63;8.60;;;9.70;76.20;;;;;;5031581;28;20424;-77
2021/04/14 08:58:03;;;;;;;9.23;8.33;;;9.80;76.50;;;;;;5031999;28;20401;-77
2021/04/14 09:00:29;;;;;;;9.17;7.90;;;9.60;77.50;;;;;;5031103;28;20420;-77
2021/04/14 09:03:01;;;;;;;8.53;7.67;;;9.70;79.10;;;;;;5031895;28;20376;-77
2021/04/14 09:05:28;;;;;;;7.93;7.10;;;9.80;77.10;;;;;;5031046;28;20555;-77
2021/04/14 09:07:55;;;;;;;10.23;9.20;;;9.80;78.30;;;;;;5031928;28;20417;-77
2021/04/14 09:10:50;;;;;;;10.30;9.30;;;9.80;81.40;;;;;;5031048;28;20409;-76
2021/04/14 09:13:16;;;;;;;11.67;10.33;;;9.80;83.60;;;;;;5030844;28;20420;-77
2021/04/14 09:15:52;;;;;;;10.07;9.10;;;9.80;83.40;;;;;;5031792;28;20508;-77
2021/04/14 09:18:31;;;;;;;11.50;10.40;;;9.70;84.10;;;;;;5031026;28;20771;-77
2021/04/14 09:21:21;;;;;;;15.20;9.57;;;9.70;85.50;;;;;;5031710;28;20401;-77
2021/04/14 09:24:02;;;;;;;10.40;9.50;;;9.70;86.10;;;;;;5031694;28;20432;-77
2021/04/14 09:26:35;;;;;;;12.67;10.53;;;9.80;86.90;;;;;;5030793;28;20492;-77
2021/04/14 09:29:07;;;;;;;11.20;10.20;;;10.00;86.70;;;;;;5031445;28;20398;-77
2021/04/14 09:31:41;;;;;;;11.20;9.87;;;10.20;88.20;;;;;;5030659;28;20412;-77
2021/04/14 09:35:00;;;;;;;12.93;11.73;;;10.50;86.40;;;;;;5031664;28;20894;-77
2021/04/14 09:37:31;;;;;;;12.50;10.47;;;10.80;84.30;;;;;;5030952;28;20945;-77
2021/04/14 09:40:07;;;;;;;13.70;12.53;;;11.10;81.40;;;;;;5035097;28;20482;-77
2021/04/14 09:42:41;;;;;;;11.80;10.70;;;11.20;79.90;;;;;;5034291;28;20467;-77
2021/04/14 09:45:30;;;;;;;14.63;13.23;;;11.20;79.10;;;;;;5034712;28;20870;-77
2021/04/14 09:47:59;;;;;;;12.43;11.17;;;11.30;78.60;;;;;;5035134;28;20418;-77
2021/04/14 09:50:28;;;;;;;13.07;9.97;;;11.30;79.40;;;;;;5049857;28;20763;-77
2021/04/14 09:52:58;;;;;;;9.63;8.73;;;11.30;77.80;;;;;;5035006;28;20417;-77
2021/04/14 09:55:34;;;;;;;10.00;8.97;;;11.30;76.50;;;;;;5034164;28;20404;-77
2021/04/14 09:58:09;;;;;;;9.97;9.10;;;11.30;73.10;;;;;;5034893;28;20436;-77
2021/04/14 10:00:41;;;;;;;9.50;8.57;;;11.30;71.70;;;;;;5034305;28;20417;-77
2021/04/14 10:03:19;;;;;;;10.93;9.87;;;11.20;72.20;;;;;;5035607;28;20956;-77
2021/04/14 10:05:45;;;;;;;9.67;8.70;;;11.20;71.30;;;;;;5034631;28;20439;-77
2021/04/14 10:08:16;;;;;;;12.60;10.53;;;11.20;70.00;;;;;;5034921;28;20998;-77
2021/04/14 10:10:45;;;;;;;9.30;8.50;;;11.20;71.80;;;;;;5034296;28;20386;-77
2021/04/14 10:13:14;;;;;;;11.13;10.10;;;11.10;69.80;;;;;;5034475;28;20416;-77
2021/04/14 10:15:42;;;;;;;10.53;9.60;;;11.00;69.40;;;;;;5033659;28;20529;-77
2021/04/14 10:18:42;;;;;;;9.70;8.23;;;11.00;69.80;;;;;;5034383;28;20467;-77
2021/04/14 10:21:18;;;;;;;10.10;8.20;;;10.90;70.70;;;;;;5033023;28;20816;-77
2021/04/14 10:23:44;;;;;;;10.50;9.37;;;10.90;73.00;;;;;;5049397;28;20412;-77
2021/04/14 10:26:12;;;;;;;10.13;9.20;;;11.00;73.10;;;;;;5034510;28;20448;-77
2021/04/14 10:28:42;;;;;;;9.80;8.87;;;11.10;70.70;;;;;;5033436;28;20415;-77
2021/04/14 10:31:28;;;;;;;9.77;8.80;;;11.40;74.00;;;;;;5049469;28;20416;-77
2021/04/14 10:34:05;;;;;;;9.20;8.33;;;11.70;71.40;;;;;;5034369;28;20456;-77
2021/04/14 10:36:34;;;;;;;9.70;8.90;;;12.10;65.90;;;;;;5032960;28;20430;-77
2021/04/14 10:39:26;;;;;;;11.00;8.30;;;12.40;65.00;;;;;;5033537;28;20433;-77
2021/04/14 10:41:56;;;;;;;10.37;9.37;;;12.60;63.60;;;;;;5034082;28;20416;-76
2021/04/14 10:44:25;;;;;;;8.40;7.70;;;12.40;60.80;;;;;;5032780;28;20505;-77
2021/04/14 10:47:04;;;;;;;9.50;8.70;;;12.30;63.10;;;;;;5033640;28;20939;-77
2021/04/14 10:49:31;;;;;;;8.00;7.20;;;12.20;63.60;;;;;;5033067;28;20415;-77
2021/04/14 10:52:17;;;;;;;12.03;9.87;;;12.10;62.50;;;;;;5033939;28;20851;-78
2021/04/14 10:54:47;;;;;;;10.63;9.07;;;12.00;62.30;;;;;;5033231;28;20503;-77
2021/04/14 10:57:50;;;;;;;9.70;9.10;;;11.90;60.70;;;;;;5033495;28;20977;-77
2021/04/14 11:00:18;;;;;;;9.70;8.20;;;11.70;60.90;;;;;;5032129;28;20808;-77
2021/04/14 11:02:47;;;;;;;9.77;8.90;;;11.60;59.20;;;;;;5033232;28;20417;-77
2021/04/14 11:05:15;;;;;;;10.40;9.40;;;11.50;61.00;;;;;;5033477;28;20462;-78
2021/04/14 11:07:43;;;;;;;8.60;7.57;;;11.40;63.90;;;;;;5032694;28;20503;-77
2021/04/14 11:10:17;;;;;;;8.20;7.50;;;11.30;66.00;;;;;;5033585;28;20501;-77
2021/04/14 11:12:44;;;;;;;8.30;7.50;;;11.30;61.80;;;;;;5052116;28;21001;-79
2021/04/14 11:15:16;;;;;;;7.70;7.10;;;11.40;59.80;;;;;;5035608;28;20417;-74
2021/04/14 11:17:42;;;;;;;8.23;7.40;;;11.50;62.70;;;;;;5035020;28;20407;-77
2021/04/14 11:20:13;;;;;;;9.00;8.30;;;11.60;67.00;;;;;;5036447;28;20411;-90
2021/04/14 11:22:48;;;;;;;8.50;7.80;;;11.70;61.20;;;;;;5033505;28;20609;-84
2021/04/14 11:25:24;;;;;;;9.50;8.70;;;11.60;63.10;;;;;;5034375;28;20483;-81
2021/04/14 11:28:02;;;;;;;9.10;8.30;;;11.50;63.00;;;;;;5034637;28;20509;-77
2021/04/14 11:30:29;;;;;;;9.57;8.63;;;11.60;60.00;;;;;;5048161;28;20435;-77
2021/04/14 11:32:58;;;;;;;8.57;7.87;;;11.50;61.60;;;;;;5048031;28;20464;-77
2021/04/14 11:35:32;;;;;;;8.30;7.63;;;11.50;59.80;;;;;;5031820;28;20824;-76
2021/04/14 11:37:58;;;;;;;8.90;7.60;;;11.50;62.10;;;;;;5032598;28;20516;-79
2021/04/14 11:40:23;;;;;;;7.90;7.30;;;11.50;61.80;;;;;;5031887;28;20837;-78
2021/04/14 11:42:55;;;;;;;7.63;7.03;;;11.50;62.40;;;;;;5032758;28;20185;-79
2021/04/14 11:45:29;;;;;;;8.30;7.70;;;11.60;64.50;;;;;;5032585;28;20209;-78
2021/04/14 11:48:15;;;;;;;8.13;7.63;;;11.80;66.70;;;;;;5032994;28;20451;-79
2021/04/14 11:50:46;;;;;;;8.67;7.97;;;12.20;66.80;;;;;;5031933;28;20397;-79
2021/04/14 11:53:20;;;;;;;8.90;8.10;;;12.30;59.10;;;;;;5033079;28;20436;-78
2021/04/14 11:55:46;;;;;;;7.50;7.00;;;12.40;58.80;;;;;;5031911;28;20502;-78
2021/04/14 11:58:35;;;;;;;8.83;7.90;;;12.60;57.70;;;;;;5032272;28;20511;-78
2021/04/14 12:01:01;;;;;;;8.40;7.70;;;12.60;56.90;;;;;;5031956;28;20445;-78
2021/04/14 12:03:39;;;;;;;7.80;7.20;;;12.70;55.40;;;;;;5031434;28;20799;-75
2021/04/14 12:06:06;;;;;;;8.40;7.80;;;12.60;55.30;;;;;;5047804;28;20487;-75
2021/04/14 12:08:32;;;;;;;8.53;7.53;;;12.60;58.30;;;;;;5031701;28;20531;-76
2021/04/14 12:10:59;;;;;;;7.97;7.10;;;12.40;56.20;;;;;;5032474;28;20486;-77
2021/04/14 12:13:25;;;;;;;7.73;6.93;;;12.30;57.10;;;;;;5031693;28;20447;-76
2021/04/14 12:15:52;;;;;;;8.10;7.30;;;12.30;56.10;;;;;;5032242;28;20448;-76
2021/04/14 12:18:18;;;;;;;8.20;7.47;;;12.10;56.90;;;;;;5032238;28;20424;-77
2021/04/14 12:20:44;;;;;;;7.03;6.43;;;12.00;59.10;;;;;;5031464;28;20404;-76
2021/04/14 12:23:10;;;;;;;8.00;7.23;;;12.00;59.00;;;;;;5032229;28;20440;-76
2021/04/14 12:25:36;;;;;;;9.27;8.57;;;11.90;57.50;;;;;;5031120;28;20534;-76
2021/04/14 12:28:03;;;;;;;8.30;7.70;;;11.70;58.60;;;;;;5031694;28;20908;-76
2021/04/14 12:30:29;;;;;;;6.40;5.90;;;11.60;58.70;;;;;;5031108;28;20182;-76
2021/04/14 12:32:55;;;;;;;6.97;6.27;;;11.60;58.30;;;;;;5029971;28;20807;-77
2021/04/14 12:35:22;;;;;;;8.07;7.27;;;11.60;60.70;;;;;;5032084;28;20414;-77
2021/04/14 12:37:48;;;;;;;7.70;7.07;;;11.60;60.80;;;;;;5031087;28;20944;-77
2021/04/14 12:40:14;;;;;;;7.17;6.57;;;11.60;66.50;;;;;;5032082;28;20416;-77
2021/04/14 12:42:40;;;;;;;6.60;6.00;;;11.50;61.80;;;;;;5031595;28;20180;-76
2021/04/14 12:45:16;;;;;;;9.70;6.60;;;11.50;60.40;;;;;;5032118;28;20951;-77
2021/04/14 12:47:41;;;;;;;6.40;5.90;;;11.70;63.80;;;;;;5031262;28;20412;-76
2021/04/14 12:50:08;;;;;;;6.83;6.13;;;12.00;64.40;;;;;;5032177;28;20970;-76
2021/04/14 12:52:43;;;;;;;8.73;8.03;;;12.20;58.10;;;;;;5030920;28;20204;-76
2021/04/14 12:55:37;;;;;;;7.10;6.40;;;12.30;57.60;;;;;;5032100;28;20407;-78
2021/04/14 12:58:04;;;;;;;9.10;8.30;;;12.50;56.10;;;;;;5032087;28;20418;-78
2021/04/14 13:00:30;;;;;;;7.27;6.57;;;12.60;55.70;;;;;;5031193;28;20462;-78
2021/04/14 13:03:11;;;;;;;7.63;6.83;;;12.80;57.90;;;;;;5028328;28;20779;-77
2021/04/14 13:05:45;;;;;;;7.57;6.97;;;12.90;56.20;;;;;;5026657;28;20442;-78
2021/04/14 13:08:17;;;;;;;4.07;3.77;;;13.10;56.60;;;;;;5012122;28;20206;-78
2021/04/14 13:10:53;;;;;;;5.00;4.70;;;13.70;84.20;;;;;;5029808;28;20429;-77
2021/04/14 13:13:19;;;;;;;6.07;5.67;;;14.50;82.00;;;;;;5035193;28;20485;-78
2021/04/14 13:16:02;;;;;;;39.20;34.90;;;15.40;72.50;;;;;;5050129;28;20427;-77
2021/04/14 13:18:33;;;;;;;15.85;14.25;;;15.80;62.70;;;;;;5021258;28;20409;-78
2021/04/14 13:21:12;;;;;;;12.67;11.57;;;16.50;66.10;;;;;;5015523;28;20168;-76